Time;durP1;ratioP1;P1;durP2;ratioP2;P2;SDS_P1;SDS_P2;PMS_P1;PMS_P2;Temp;Humidity;BMP_temperature;BMP_pressure;BME280_temperature;BME280_humidity;BME280_pressure;Samples;Min_cycle;Max_cycle;Signal;HPM_P1;HPM_P2
2022/12/28 00:02:07;;;;;;;11.57;4.72;;;;;;;4.09;100.00;153564.38;5006621;28;20127;-75
2022/12/28 00:04:33;;;;;;;12.50;4.88;;;;;;;4.09;100.00;153565.63;5009396;28;20041;-76
2022/12/28 00:06:58;;;;;;;13.57;4.35;;;;;;;4.08;100.00;153563.06;5004837;28;20394;-75
2022/12/28 00:09:24;;;;;;;12.65;4.45;;;;;;;3.99;100.00;153540.06;5040305;28;20036;-77
2022/12/28 00:11:50;;;;;;;12.50;3.78;;;;;;;4.03;100.00;153549.00;5026925;28;20111;-76
2022/12/28 00:14:15;;;;;;;15.73;3.78;;;;;;;4.03;100.00;153550.31;5008323;28;20033;-76
2022/12/28 00:16:42;;;;;;;16.50;4.50;;;;;;;4.00;100.00;153542.63;5025791;28;20757;-75
2022/12/28 00:19:15;;;;;;;8.52;3.70;;;;;;;3.99;100.00;153540.06;5011915;28;20036;-75
2022/12/28 00:21:42;;;;;;;13.57;4.38;;;;;;;4.03;100.00;153549.00;4995600;28;20155;-77
2022/12/28 00:24:18;;;;;;;12.75;3.38;;;;;;;4.03;100.00;153550.31;5002819;28;20132;-78
2022/12/28 00:26:43;;;;;;;11.32;3.20;;;;;;;3.99;100.00;153540.06;5006716;28;20447;-77
2022/12/28 00:29:10;;;;;;;10.52;3.30;;;;;;;4.05;100.00;153555.41;5012683;28;20052;-77
2022/12/28 00:31:36;;;;;;;8.85;2.78;;;;;;;4.17;100.00;153583.53;5021182;28;20030;-73
2022/12/28 00:34:03;;;;;;;10.80;2.60;;;;;;;4.13;100.00;153574.56;4992922;28;20094;-74
2022/12/28 00:36:29;;;;;;;8.95;2.65;;;;;;;4.14;100.00;153575.84;5015975;28;20041;-74
2022/12/28 00:38:55;;;;;;;15.73;3.03;;;;;;;4.09;100.00;153565.63;4992535;28;20696;-74
2022/12/28 00:41:21;;;;;;;8.73;2.97;;;;;;;4.16;100.00;153580.94;4996207;28;20033;-75
2022/12/28 00:43:47;;;;;;;7.80;2.10;;;;;;;4.16;100.00;153582.22;5011183;28;20131;-75
2022/12/28 00:46:13;;;;;;;10.52;2.63;;;;;;;4.15;100.00;153578.41;5008258;28;20025;-75
2022/12/28 00:48:38;;;;;;;9.65;2.35;;;;;;;4.20;100.00;153592.47;5016674;28;20064;-77
2022/12/28 00:51:11;;;;;;;11.07;2.78;;;;;;;4.13;100.00;153574.56;5030395;28;20366;-75
2022/12/28 00:53:37;;;;;;;7.65;2.50;;;;;;;4.15;100.00;153579.69;4991870;28;20124;-75
2022/12/28 00:56:15;;;;;;;13.77;2.22;;;;;;;4.19;100.00;153589.91;5017147;28;20431;-74
2022/12/28 00:58:42;;;;;;;11.80;2.80;;;;;;;4.21;100.00;153593.72;4998588;28;20036;-75
2022/12/28 01:01:16;;;;;;;6.95;2.08;;;;;;;4.12;100.00;153572.00;5011825;28;20122;-75
2022/12/28 01:03:42;;;;;;;11.32;2.30;;;;;;;4.11;100.00;153569.47;5004921;28;20594;-74
2022/12/28 01:06:09;;;;;;;5.95;2.35;;;;;;;4.14;100.00;153575.84;5014595;28;20046;-74
2022/12/28 01:08:37;;;;;;;9.07;2.20;;;;;;;4.19;100.00;153589.91;5010230;28;20119;-74
2022/12/28 01:11:07;;;;;;;8.30;2.20;;;;;;;4.12;100.00;153570.72;5032772;28;20567;-75
2022/12/28 01:13:32;;;;;;;5.70;2.10;;;;;;;4.13;100.00;153574.56;5013387;28;20135;-74
2022/12/28 01:15:58;;;;;;;9.25;2.22;;;;;;;4.06;100.00;153557.94;5001893;28;20447;-74
2022/12/28 01:18:24;;;;;;;7.40;1.92;;;;;;;4.06;100.00;153557.94;5001945;28;20039;-75
2022/12/28 01:20:50;;;;;;;7.80;1.90;;;;;;;4.03;100.00;153549.00;5015633;28;20128;-74
2022/12/28 01:23:16;;;;;;;11.80;1.95;;;;;;;3.99;100.00;153538.78;5017887;28;20683;-75
2022/12/28 01:25:41;;;;;;;7.53;2.08;;;;;;;4.01;100.00;153545.22;5005188;28;20498;-74
2022/12/28 01:28:07;;;;;;;8.88;1.80;;;;;;;3.99;100.00;153538.78;5025624;28;20092;-74
2022/12/28 01:30:32;;;;;;;9.98;2.10;;;;;;;3.90;100.00;153518.38;5017195;28;20067;-74
2022/12/28 01:32:58;;;;;;;8.48;2.30;;;;;;;3.95;100.00;153528.59;5017921;28;20051;-75
2022/12/28 01:35:25;;;;;;;5.78;1.60;;;;;;;3.97;100.00;153533.69;5016930;28;20438;-75
2022/12/28 01:37:51;;;;;;;7.93;2.08;;;;;;;3.97;100.00;153533.69;4997907;28;20036;-74
2022/12/28 01:40:16;;;;;;;8.40;1.98;;;;;;;4.00;100.00;153541.38;5013287;28;20044;-74
2022/12/28 01:42:42;;;;;;;7.07;2.47;;;;;;;4.04;100.00;153552.84;4995523;28;20118;-74
2022/12/28 01:45:20;;;;;;;10.45;2.28;;;;;;;4.09;100.00;153564.38;5033428;28;20640;-73
2022/12/28 01:47:52;;;;;;;9.43;1.80;;;;;;;3.98;100.00;153537.53;5020592;28;20045;-73
2022/12/28 01:50:22;;;;;;;8.13;1.60;;;;;;;4.05;100.00;153554.09;5018351;28;20060;-73
2022/12/28 01:52:54;;;;;;;8.90;2.40;;;;;;;4.01;100.00;153543.91;5004281;28;20037;-75
2022/12/28 01:55:40;;;;;;;6.55;1.60;;;;;;;4.08;100.00;153561.78;5002722;28;20128;-75
2022/12/28 01:58:11;;;;;;;6.35;1.30;;;;;;;4.12;100.00;153570.72;5011032;28;20068;-73
2022/12/28 02:00:39;;;;;;;8.65;1.67;;;;;;;4.14;100.00;153577.09;5024181;28;20083;-76
2022/12/28 02:03:12;;;;;;;8.40;1.83;;;;;;;4.11;100.00;153569.47;5013413;28;20039;-73
2022/12/28 02:05:42;;;;;;;5.65;1.58;;;;;;;4.10;100.00;153568.16;5009288;28;20126;-74
2022/12/28 02:08:14;;;;;;;10.07;1.90;;;;;;;4.14;100.00;153575.84;4991962;28;20825;-76
2022/12/28 02:10:40;;;;;;;8.38;1.40;;;;;;;4.17;100.00;153583.53;5012926;28;20115;-74
2022/12/28 02:13:08;;;;;;;5.60;1.77;;;;;;;4.12;100.00;153572.00;5012255;28;20040;-74
2022/12/28 02:15:34;;;;;;;6.18;1.70;;;;;;;4.16;100.00;153582.22;5007411;28;20036;-73
2022/12/28 02:18:00;;;;;;;5.47;1.60;;;;;;;4.16;100.00;153582.22;5021591;28;20498;-75
2022/12/28 02:20:37;;;;;;;8.57;1.73;;;;;;;4.15;100.00;153579.69;5029616;28;20094;-75
2022/12/28 02:23:18;;;;;;;6.28;1.70;;;;;;;4.21;100.00;153595.00;5024387;28;20071;-76
2022/12/28 02:26:22;;;;;;;9.27;1.95;;;;;;;4.22;100.00;153596.25;5011230;28;20045;-74
2022/12/28 02:28:50;;;;;;;6.65;1.58;;;;;;;4.21;100.00;153595.00;5009716;28;20039;-75
2022/12/28 02:31:28;;;;;;;5.03;1.40;;;;;;;4.26;100.00;153606.53;5013800;28;20033;-72
2022/12/28 02:34:16;;;;;;;4.78;1.42;;;;;;;4.31;100.00;153618.00;4995714;28;20044;-75
2022/12/28 02:36:48;;;;;;;8.07;1.67;;;;;;;4.34;100.00;153626.94;5012705;28;20062;-74
2022/12/28 02:39:20;;;;;;;5.13;1.73;;;;;;;4.36;100.00;153630.78;5010482;28;20045;-75
2022/12/28 02:41:47;;;;;;;6.25;2.05;;;;;;;4.29;100.00;153615.47;4991223;28;20037;-74
2022/12/28 02:50:04;;;;;;;3.97;1.52;;;;;;;4.31;100.00;153619.25;5017536;28;20091;-74
2022/12/28 02:52:47;;;;;;;5.30;1.55;;;;;;;4.24;100.00;153602.69;5008889;28;20040;-74
2022/12/28 02:58:31;;;;;;;5.93;1.30;;;;;;;4.14;100.00;153577.09;5020744;28;20037;-74
2022/12/28 03:01:13;;;;;;;7.25;2.05;;;;;;;4.13;100.00;153573.31;4994041;28;20041;-73
2022/12/28 03:03:39;;;;;;;;;;;;;;;4.13;100.00;153573.31;5016342;28;20037;-74
2022/12/28 03:09:19;;;;;;;6.03;1.65;;;;;;;3.97;100.00;153533.69;5009511;28;20028;-75
2022/12/28 03:12:01;;;;;;;5.22;1.60;;;;;;;3.98;100.00;153536.25;5022605;28;20033;-75
2022/12/28 03:14:34;;;;;;;;;;;;;;;3.94;100.00;153526.00;5018646;28;20033;-76
2022/12/28 03:31:10;;;;;;;6.05;1.63;;;;;;;3.88;100.00;153511.97;5004111;28;20120;-74
2022/12/28 03:33:50;;;;;;;6.30;1.88;;;;;;;3.82;100.00;153496.66;5022123;28;20044;-75
2022/12/28 03:36:25;;;;;;;9.75;2.03;;;;;;;3.77;100.00;153483.88;5008337;28;20125;-75
2022/12/28 03:39:00;;;;;;;8.23;1.70;;;;;;;3.73;100.00;153474.97;5008865;28;20040;-75
2022/12/28 03:41:44;;;;;;;7.13;1.75;;;;;;;3.75;100.00;153478.75;5015294;28;20036;-74
2022/12/28 03:44:27;;;;;;;5.00;1.50;;;;;;;3.65;100.00;153454.50;4995082;28;20134;-75
2022/12/28 03:47:06;;;;;;;8.45;1.80;;;;;;;3.64;100.00;153451.97;5006412;28;20479;-74
2022/12/28 03:49:34;;;;;;;7.97;1.58;;;;;;;3.60;100.00;153441.72;4993039;28;20048;-77
2022/12/28 03:52:00;;;;;;;7.57;2.00;;;;;;;3.49;100.00;153414.94;5008174;28;20041;-75
2022/12/28 03:54:27;;;;;;;5.15;1.83;;;;;;;3.51;100.00;153421.31;5005648;28;20108;-75
2022/12/28 03:56:52;;;;;;;6.93;1.80;;;;;;;3.48;100.00;153413.69;5003879;28;21132;-76
2022/12/28 03:59:22;;;;;;;10.35;2.13;;;;;;;3.39;100.00;153390.69;5030509;28;20037;-75
2022/12/28 04:01:50;;;;;;;9.30;2.10;;;;;;;3.41;100.00;153394.47;5011560;28;20068;-75
2022/12/28 04:04:17;;;;;;;10.65;2.22;;;;;;;3.35;100.00;153379.19;5008164;28;20063;-76
2022/12/28 04:06:43;;;;;;;9.65;1.83;;;;;;;3.33;100.00;153375.34;5012939;28;20052;-76
2022/12/28 04:09:09;;;;;;;9.57;2.13;;;;;;;3.23;100.00;153351.09;5009200;28;20102;-75
2022/12/28 04:11:38;;;;;;;9.40;2.05;;;;;;;3.16;100.00;153333.22;5005637;28;20071;-76
2022/12/28 04:14:05;;;;;;;8.13;1.92;;;;;;;3.21;100.00;153344.72;5008740;28;20047;-75
2022/12/28 04:16:34;;;;;;;10.82;2.65;;;;;;;3.12;100.00;153323.00;5006443;28;20032;-76
2022/12/28 04:19:00;;;;;;;9.05;2.33;;;;;;;3.06;100.00;153307.69;5010448;28;20072;-75
2022/12/28 04:21:27;;;;;;;7.45;2.33;;;;;;;3.07;100.00;153310.22;5004827;28;20049;-76
2022/12/28 04:23:54;;;;;;;9.98;2.28;;;;;;;3.13;100.00;153325.56;5006783;28;20048;-75
2022/12/28 04:26:20;;;;;;;7.63;2.20;;;;;;;3.10;100.00;153319.16;5004903;28;20026;-76
2022/12/28 04:28:48;;;;;;;5.85;1.90;;;;;;;3.03;100.00;153300.03;5010364;28;20047;-74
2022/12/28 04:31:23;;;;;;;5.18;1.92;;;;;;;3.04;100.00;153302.59;4997102;28;20123;-76
2022/12/28 04:34:13;;;;;;;9.95;3.03;;;;;;;3.02;100.00;153298.75;5011141;28;20045;-74
2022/12/28 04:36:45;;;;;;;11.07;2.60;;;;;;;3.02;100.00;153297.50;5004010;28;20034;-76
2022/12/28 04:39:15;;;;;;;8.25;2.17;;;;;;;3.04;100.00;153303.84;5001684;28;20912;-76
2022/12/28 04:41:40;;;;;;;12.82;2.40;;;;;;;2.95;100.00;153279.63;5003556;28;20038;-75
2022/12/28 04:44:06;;;;;;;12.90;2.70;;;;;;;2.97;100.00;153284.72;5004283;28;20853;-74
2022/12/28 04:46:31;;;;;;;6.40;2.17;;;;;;;2.99;100.00;153291.09;4998305;28;20090;-75
2022/12/28 04:48:59;;;;;;;10.40;2.17;;;;;;;3.01;100.00;153294.91;5009322;28;20132;-75
2022/12/28 04:51:29;;;;;;;6.30;2.10;;;;;;;3.01;100.00;153294.91;5006991;28;20376;-75
2022/12/28 04:53:56;;;;;;;11.23;2.85;;;;;;;2.96;100.00;153283.47;5007591;28;20045;-75
2022/12/28 04:56:23;;;;;;;12.57;2.50;;;;;;;2.99;100.00;153289.81;5008106;28;20033;-74
2022/12/28 04:58:56;;;;;;;10.05;2.13;;;;;;;3.00;100.00;153292.41;5021708;28;20508;-75
2022/12/28 05:01:22;;;;;;;7.95;2.38;;;;;;;2.94;100.00;153278.34;5007457;28;20033;-75
2022/12/28 05:03:49;;;;;;;9.40;2.42;;;;;;;2.99;100.00;153289.81;5026003;28;20044;-74
2022/12/28 05:06:17;;;;;;;15.57;2.72;;;;;;;2.91;100.00;153271.94;4986996;28;20037;-75
2022/12/28 05:08:44;;;;;;;11.77;2.90;;;;;;;2.97;100.00;153284.72;5019194;28;20037;-75
2022/12/28 05:11:13;;;;;;;9.25;2.75;;;;;;;2.99;100.00;153289.81;5023323;28;20033;-74
2022/12/28 05:13:39;;;;;;;14.07;3.15;;;;;;;2.93;100.00;153275.78;5026889;28;20543;-74
2022/12/28 05:16:07;;;;;;;11.95;3.30;;;;;;;2.92;100.00;153274.53;5025278;28;20044;-75
2022/12/28 05:18:33;;;;;;;9.52;2.70;;;;;;;3.03;100.00;153301.34;4996531;28;20028;-75
2022/12/28 05:21:01;;;;;;;8.35;2.50;;;;;;;2.98;100.00;153287.28;5028187;28;20040;-75
2022/12/28 05:23:28;;;;;;;11.85;3.00;;;;;;;2.95;100.00;153280.88;5027091;28;20498;-74
2022/12/28 05:25:55;;;;;;;14.13;3.50;;;;;;;2.95;100.00;153279.63;5044094;28;20037;-74
2022/12/28 05:28:21;;;;;;;11.90;2.97;;;;;;;2.94;100.00;153278.34;4996577;28;20041;-74
2022/12/28 05:30:46;;;;;;;7.57;2.85;;;;;;;3.01;100.00;153294.91;5015827;28;20028;-75
2022/12/28 05:33:12;;;;;;;6.85;3.15;;;;;;;3.00;100.00;153292.41;5024807;28;20383;-76
2022/12/28 05:35:38;;;;;;;9.75;3.28;;;;;;;3.02;100.00;153298.75;5032762;28;20037;-74
2022/12/28 05:38:03;;;;;;;11.32;3.28;;;;;;;3.03;100.00;153301.34;5021082;28;20030;-74
2022/12/28 05:40:29;;;;;;;5.78;3.20;;;;;;;3.03;100.00;153301.34;5013139;28;20029;-75
2022/12/28 05:42:55;;;;;;;13.00;3.40;;;;;;;3.10;100.00;153319.16;5010808;28;20127;-75
2022/12/28 05:45:20;;;;;;;10.20;3.10;;;;;;;3.12;100.00;153323.00;5012069;28;20128;-74
2022/12/28 05:47:46;;;;;;;14.40;3.63;;;;;;;3.13;100.00;153325.56;5014445;28;20103;-75
2022/12/28 05:50:12;;;;;;;8.35;3.30;;;;;;;3.15;100.00;153330.69;4994791;28;20523;-75
2022/12/28 05:52:37;;;;;;;10.43;3.35;;;;;;;3.23;100.00;153349.81;5026137;28;20379;-74
2022/12/28 05:55:03;;;;;;;10.00;3.60;;;;;;;3.22;100.00;153347.25;5010888;28;20048;-74
2022/12/28 05:57:29;;;;;;;10.13;3.33;;;;;;;3.28;100.00;153362.59;5010485;28;20040;-74
2022/12/28 05:59:54;;;;;;;5.55;3.00;;;;;;;3.30;100.00;153368.97;5011054;28;20037;-75
2022/12/28 06:02:24;;;;;;;10.50;3.53;;;;;;;3.28;100.00;153363.88;4996790;28;20037;-75
2022/12/28 06:04:50;;;;;;;7.78;3.10;;;;;;;3.37;100.00;153384.28;4998424;28;20037;-74
2022/12/28 06:07:15;;;;;;;7.45;3.40;;;;;;;3.38;100.00;153386.84;5009469;28;20114;-75
2022/12/28 06:09:41;;;;;;;8.52;3.45;;;;;;;3.36;100.00;153383.00;5013563;28;20094;-75
2022/12/28 06:12:07;;;;;;;10.55;3.40;;;;;;;3.33;100.00;153374.06;5033856;28;20071;-75
2022/12/28 06:14:32;;;;;;;7.65;3.00;;;;;;;3.35;100.00;153380.44;5013428;28;20040;-73
2022/12/28 06:16:58;;;;;;;7.53;3.45;;;;;;;3.46;100.00;153407.25;5032259;28;20037;-74
2022/12/28 06:19:23;;;;;;;7.03;3.20;;;;;;;3.42;100.00;153398.31;5032540;28;20043;-74
2022/12/28 06:21:49;;;;;;;7.32;3.40;;;;;;;3.39;100.00;153390.69;5009597;28;20029;-75
2022/12/28 06:24:16;;;;;;;8.02;3.28;;;;;;;3.38;100.00;153386.84;5030976;28;20480;-74
2022/12/28 06:26:42;;;;;;;8.10;3.50;;;;;;;3.37;100.00;153385.59;5028547;28;20060;-75
2022/12/28 06:29:08;;;;;;;6.35;3.40;;;;;;;3.43;100.00;153399.63;5014654;28;20076;-74
2022/12/28 06:31:37;;;;;;;9.77;3.63;;;;;;;3.46;100.00;153407.25;5024782;28;20476;-74
2022/12/28 06:34:04;;;;;;;7.60;3.30;;;;;;;3.54;100.00;153426.41;5007950;28;20033;-74
2022/12/28 06:36:36;;;;;;;9.75;3.75;;;;;;;3.51;100.00;153421.31;5007968;28;20101;-75
2022/12/28 06:39:04;;;;;;;6.57;2.90;;;;;;;3.53;100.00;153425.16;5006246;28;20068;-74
2022/12/28 06:41:30;;;;;;;7.35;3.30;;;;;;;3.55;100.00;153430.25;5031713;28;20056;-74
2022/12/28 06:43:57;;;;;;;7.30;3.10;;;;;;;3.63;100.00;153450.66;5008586;28;20068;-76
2022/12/28 06:46:25;;;;;;;4.60;2.80;;;;;;;3.67;100.00;153459.59;5006400;28;20132;-75
2022/12/28 06:48:51;;;;;;;6.45;3.03;;;;;;;3.67;100.00;153459.59;5027454;28;20034;-74
2022/12/28 06:51:19;;;;;;;5.60;2.85;;;;;;;3.70;100.00;153468.56;5025643;28;20512;-75
2022/12/28 06:53:46;;;;;;;6.78;3.30;;;;;;;3.68;100.00;153462.19;5024878;28;20064;-74
2022/12/28 06:56:19;;;;;;;6.95;3.75;;;;;;;3.74;100.00;153476.22;5032386;28;20128;-75
2022/12/28 06:58:45;;;;;;;9.90;3.42;;;;;;;3.73;100.00;153474.97;5016708;28;20071;-75
2022/12/28 07:01:23;;;;;;;3.95;3.13;;;;;;;3.79;100.00;153490.28;5021634;28;20107;-75
2022/12/28 07:03:52;;;;;;;7.65;3.10;;;;;;;3.88;100.00;153513.28;5019925;28;20069;-77
2022/12/28 07:06:20;;;;;;;5.68;2.60;;;;;;;3.95;100.00;153528.59;5013194;28;20658;-75
2022/12/28 07:08:47;;;;;;;5.97;2.95;;;;;;;3.96;100.00;153531.16;5043694;28;20039;-75
2022/12/28 07:11:14;;;;;;;4.95;2.90;;;;;;;4.03;100.00;153549.00;5012884;28;20086;-74
2022/12/28 07:13:40;;;;;;;6.20;2.80;;;;;;;4.04;100.00;153551.59;5028914;28;20101;-75
2022/12/28 07:16:10;;;;;;;3.78;2.25;;;;;;;4.10;100.00;153566.91;5010966;28;20119;-75
2022/12/28 07:18:37;;;;;;;4.38;2.75;;;;;;;4.16;100.00;153582.22;5019530;28;20033;-75
2022/12/28 07:21:09;;;;;;;4.50;2.72;;;;;;;4.19;100.00;153588.63;5025294;28;20483;-74
2022/12/28 07:23:35;;;;;;;5.40;2.60;;;;;;;4.23;100.00;153600.09;5011012;28;20041;-75
2022/12/28 07:26:12;;;;;;;3.97;2.95;;;;;;;4.25;100.00;153603.94;5015058;28;20028;-74
2022/12/28 07:28:40;;;;;;;3.80;2.50;;;;;;;4.26;100.00;153606.53;5030000;28;20797;-75
2022/12/28 07:31:15;;;;;;;3.85;2.45;;;;;;;4.27;100.00;153609.06;5012191;28;20045;-74
2022/12/28 07:33:42;;;;;;;5.60;2.80;;;;;;;4.28;100.00;153612.88;4998563;28;20510;-76
2022/12/28 07:36:12;;;;;;;4.70;2.70;;;;;;;4.32;100.00;153620.56;5019440;28;20392;-76
2022/12/28 07:38:38;;;;;;;4.72;2.80;;;;;;;4.29;100.00;153614.16;5012938;28;20610;-75
2022/12/28 07:41:05;;;;;;;3.88;2.53;;;;;;;4.36;100.00;153632.06;5010017;28;20044;-75
2022/12/28 07:43:31;;;;;;;4.97;2.63;;;;;;;4.33;100.00;153624.38;5007332;28;20028;-75
2022/12/28 07:46:05;;;;;;;4.90;2.50;;;;;;;4.40;100.00;153641.00;5005934;28;20495;-75
2022/12/28 07:48:33;;;;;;;3.20;2.90;;;;;;;4.42;100.00;153646.09;5025012;28;20031;-75
2022/12/28 07:51:17;;;;;;;3.05;2.45;;;;;;;4.42;100.00;153647.38;5041955;28;20410;-75
2022/12/28 07:53:46;;;;;;;3.53;2.55;;;;;;;4.48;100.00;153662.75;4989417;28;20167;-75
2022/12/28 07:56:12;;;;;;;3.35;2.28;;;;;;;4.52;100.00;153670.38;5006343;28;20037;-74
2022/12/28 07:58:39;;;;;;;3.65;2.05;;;;;;;4.56;100.00;153680.59;5024317;28;20048;-74
2022/12/28 08:01:07;;;;;;;4.15;2.55;;;;;;;4.59;100.00;153689.53;5007633;28;20045;-75
2022/12/28 08:03:34;;;;;;;2.40;2.20;;;;;;;4.60;100.00;153690.84;5022021;28;20581;-76
2022/12/28 08:06:12;;;;;;;5.03;2.50;;;;;;;4.68;100.00;153711.28;5003034;28;20087;-75
2022/12/28 08:08:40;;;;;;;2.67;2.42;;;;;;;4.67;100.00;153708.69;5026953;28;20044;-75
2022/12/28 08:11:09;;;;;;;3.88;2.22;;;;;;;4.71;100.00;153718.97;5007942;28;20640;-76
2022/12/28 08:13:37;;;;;;;3.20;2.63;;;;;;;4.77;100.00;153733.03;5013396;28;20483;-75
2022/12/28 08:16:03;;;;;;;3.05;2.75;;;;;;;4.81;100.00;153744.50;5007033;28;20045;-75
2022/12/28 08:18:30;;;;;;;4.55;3.05;;;;;;;4.86;100.00;153757.28;5006391;28;20068;-75
2022/12/28 08:21:05;;;;;;;3.80;3.08;;;;;;;4.93;100.00;153773.88;5001193;28;20025;-75
2022/12/28 08:23:31;;;;;;;3.90;3.40;;;;;;;4.91;100.00;152545.97;5010244;28;20033;-76
2022/12/28 08:26:11;;;;;;;3.60;3.30;;;;;;;4.97;100.00;147868.69;5008590;28;20043;-75
2022/12/28 08:28:38;;;;;;;4.43;4.03;;;;;;;4.98;100.00;143688.38;5012529;28;20082;-75
2022/12/28 08:31:10;;;;;;;3.72;3.33;;;;;;;5.01;100.00;137982.97;5005708;28;20041;-75
2022/12/28 08:33:36;;;;;;;4.32;3.72;;;;;;;5.03;100.00;136310.00;4993628;28;20055;-77
2022/12/28 08:36:03;;;;;;;4.45;3.83;;;;;;;5.12;100.00;132301.38;5024764;28;20673;-75
2022/12/28 08:38:29;;;;;;;4.47;4.07;;;;;;;5.11;100.00;130623.66;4996824;28;20033;-75
2022/12/28 08:41:00;;;;;;;4.43;4.03;;;;;;;5.17;100.00;127620.16;5023585;28;20398;-75
2022/12/28 08:43:27;;;;;;;5.03;4.20;;;;;;;5.19;100.00;126283.34;5004288;28;20040;-76
2022/12/28 08:46:01;;;;;;;4.57;4.18;;;;;;;5.25;100.00;123951.69;5008086;28;20062;-75
2022/12/28 08:48:28;;;;;;;4.30;3.90;;;;;;;5.36;100.00;121630.00;5014985;28;20067;-76
2022/12/28 08:50:54;;;;;;;4.55;4.15;;;;;;;5.40;100.00;123982.44;5007408;28;20025;-75
2022/12/28 08:53:23;;;;;;;4.20;3.90;;;;;;;5.46;100.00;127010.03;5022081;28;20037;-75
2022/12/28 08:55:50;;;;;;;4.57;4.18;;;;;;;5.46;100.00;130698.31;5022164;28;20039;-75
2022/12/28 08:58:16;;;;;;;4.45;3.85;;;;;;;5.58;100.00;132736.78;4992172;28;20068;-76
2022/12/28 09:00:42;;;;;;;4.50;4.18;;;;;;;5.58;100.00;138111.16;5040630;28;20029;-74
2022/12/28 09:03:07;;;;;;;5.18;4.70;;;;;;;5.65;100.00;140480.97;4993772;28;20064;-76
2022/12/28 09:05:39;;;;;;;5.80;5.30;;;;;;;5.72;100.00;144870.22;5020970;28;20602;-75
2022/12/28 09:08:05;;;;;;;6.25;5.75;;;;;;;5.72;100.00;150046.78;5018819;28;20040;-76
2022/12/28 09:10:31;;;;;;;7.05;6.10;;;;;;;5.71;100.00;151293.03;5014125;28;20041;-76
2022/12/28 09:12:56;;;;;;;7.07;6.45;;;;;;;5.80;100.00;152426.56;5028578;28;20037;-76
2022/12/28 09:15:23;;;;;;;6.93;6.32;;;;;;;5.88;100.00;154010.44;5012914;28;20041;-76
2022/12/28 09:17:48;;;;;;;6.93;6.20;;;;;;;5.90;100.00;154015.56;4993968;28;20041;-76
2022/12/28 09:20:14;;;;;;;7.40;6.70;;;;;;;5.86;100.00;154005.34;5008936;28;20044;-76
2022/12/28 09:22:40;;;;;;;7.95;6.97;;;;;;;6.00;100.00;154039.91;5009612;28;20037;-76
2022/12/28 09:25:06;;;;;;;7.75;6.82;;;;;;;6.00;100.00;154041.16;4993673;28;20674;-75
2022/12/28 09:27:34;;;;;;;8.02;7.32;;;;;;;6.04;100.00;154051.38;5016218;28;20123;-76
2022/12/28 09:29:59;;;;;;;8.27;7.47;;;;;;;6.07;100.00;154056.53;4995162;28;20029;-75
2022/12/28 09:32:25;;;;;;;7.63;6.93;;;;;;;6.11;100.00;154068.03;4994597;28;20172;-75
2022/12/28 09:34:51;;;;;;;7.80;7.18;;;;;;;6.14;100.00;154074.41;5012937;28;20038;-75
2022/12/28 09:37:16;;;;;;;7.65;6.93;;;;;;;6.16;100.00;154080.84;5015415;28;20160;-75
2022/12/28 09:39:42;;;;;;;7.45;6.75;;;;;;;6.20;100.00;154089.78;5032345;28;20040;-76
2022/12/28 09:42:16;;;;;;;7.43;6.82;;;;;;;6.22;100.00;154094.91;5012822;28;20045;-76
2022/12/28 09:44:48;;;;;;;7.90;7.10;;;;;;;6.23;100.00;154098.75;5006169;28;20040;-76
2022/12/28 09:47:21;;;;;;;7.57;6.87;;;;;;;6.30;100.00;154115.38;5025686;28;20128;-75
2022/12/28 09:50:03;;;;;;;7.68;7.07;;;;;;;6.26;100.00;154103.88;5008581;28;20052;-76
2022/12/28 09:52:37;;;;;;;6.78;6.22;;;;;;;6.33;100.00;154123.06;4996148;28;20043;-76
2022/12/28 09:55:15;;;;;;;7.07;6.47;;;;;;;6.36;100.00;154129.44;5011835;28;20091;-75
2022/12/28 09:57:44;;;;;;;7.13;6.53;;;;;;;6.36;100.00;154129.44;5004388;28;20033;-75
2022/12/28 10:00:20;;;;;;;7.03;6.32;;;;;;;6.42;100.00;154144.78;5023668;28;20041;-76
2022/12/28 10:02:52;;;;;;;6.43;5.82;;;;;;;6.43;100.00;154148.63;5010980;28;20037;-76
2022/12/28 10:05:20;;;;;;;6.57;5.88;;;;;;;6.42;100.00;154146.09;5009642;28;20326;-76
2022/12/28 10:07:46;;;;;;;7.03;6.10;;;;;;;6.50;100.00;154163.97;5012775;28;20037;-75
2022/12/28 10:10:22;;;;;;;6.35;5.75;;;;;;;6.48;100.00;154160.16;5040713;28;20912;-75
2022/12/28 10:12:49;;;;;;;5.80;5.40;;;;;;;6.45;100.00;154151.19;5007477;28;20036;-76
2022/12/28 10:15:16;;;;;;;6.65;5.90;;;;;;;6.45;100.00;154151.19;5010975;28;20147;-76
2022/12/28 10:17:43;;;;;;;5.82;5.32;;;;;;;6.48;100.00;154158.84;5010273;28;20041;-76
2022/12/28 10:20:17;;;;;;;5.70;5.30;;;;;;;6.55;100.00;154178.03;5009644;28;20849;-75
2022/12/28 10:22:47;;;;;;;6.45;5.63;;;;;;;6.57;100.00;154181.88;5012961;28;20132;-76
2022/12/28 10:25:19;;;;;;;5.57;5.18;;;;;;;6.58;100.00;154184.47;4989353;28;20068;-75
2022/12/28 10:27:44;;;;;;;6.35;5.75;;;;;;;6.65;100.00;154202.38;4994848;28;20837;-77
2022/12/28 10:30:17;;;;;;;5.50;5.10;;;;;;;6.71;100.00;154217.72;5045009;28;20083;-76
2022/12/28 10:32:55;;;;;;;6.68;6.18;;;;;;;6.63;100.00;154198.53;5009310;28;20064;-76
2022/12/28 10:35:42;;;;;;;7.68;6.30;;;;;;;6.60;100.00;154190.84;4997712;28;20310;-76
2022/12/28 10:38:28;;;;;;;8.82;6.63;;;;;;;6.62;100.00;154194.69;5013802;28;20103;-77
2022/12/28 10:41:03;;;;;;;7.50;6.80;;;;;;;6.58;100.00;154184.47;5005139;28;20272;-76
2022/12/28 10:43:33;;;;;;;8.32;7.53;;;;;;;6.65;100.00;154202.38;5000469;28;20094;-76
2022/12/28 10:46:00;;;;;;;7.60;7.00;;;;;;;6.69;100.00;154212.63;5032982;28;20120;-77
2022/12/28 10:48:30;;;;;;;6.93;6.38;;;;;;;6.78;100.00;154235.66;5013195;28;20050;-77
2022/12/28 10:51:37;;;;;;;8.40;7.63;;;;;;;6.78;100.00;154235.66;5024059;28;20029;-77
2022/12/28 10:54:23;;;;;;;7.32;6.63;;;;;;;6.77;100.00;154231.81;5025398;28;20052;-77
2022/12/28 10:56:49;;;;;;;6.97;6.38;;;;;;;6.87;100.00;154256.13;5029202;28;20053;-76
2022/12/28 10:59:26;;;;;;;6.93;6.32;;;;;;;6.94;100.00;154275.31;5013771;28;20041;-76
2022/12/28 11:01:55;;;;;;;6.88;5.72;;;;;;;6.98;100.00;154285.53;4987265;28;20032;-76
2022/12/28 11:04:24;;;;;;;8.18;5.40;;;;;;;6.97;100.00;154283.00;5025671;28;21020;-76
2022/12/28 11:06:50;;;;;;;5.72;5.25;;;;;;;7.04;100.00;154299.63;5029067;28;20387;-77
2022/12/28 11:09:18;;;;;;;5.20;4.70;;;;;;;7.14;100.00;154323.94;5028900;28;20062;-76
2022/12/28 11:11:46;;;;;;;5.85;5.00;;;;;;;7.12;100.00;154318.81;5014377;28;20041;-77
2022/12/28 11:14:32;;;;;;;5.13;4.72;;;;;;;7.06;100.00;154303.47;5022466;28;20617;-76
2022/12/28 11:17:15;;;;;;;5.32;4.90;;;;;;;7.09;100.00;154311.16;5005998;28;20029;-75
2022/12/28 11:19:41;;;;;;;4.35;3.97;;;;;;;7.11;100.00;154317.56;5029673;28;20083;-75
2022/12/28 11:22:10;;;;;;;4.88;4.47;;;;;;;7.02;100.00;154295.78;5027417;28;20545;-75
2022/12/28 11:24:38;;;;;;;5.32;4.93;;;;;;;7.06;100.00;154303.47;5041927;28;20043;-75
2022/12/28 11:27:04;;;;;;;5.40;4.90;;;;;;;7.05;100.00;154300.94;5024879;28;20033;-74
2022/12/28 11:29:30;;;;;;;5.30;4.40;;;;;;;7.12;100.00;154318.81;5027376;28;20110;-74
2022/12/28 11:32:03;;;;;;;4.75;4.35;;;;;;;7.06;100.00;154303.47;5007330;28;20031;-74
2022/12/28 11:34:30;;;;;;;5.20;4.30;;;;;;;7.05;100.00;154302.19;5015611;28;20033;-74
2022/12/28 11:36:57;;;;;;;4.88;4.45;;;;;;;7.04;100.00;154299.63;5015090;28;20068;-75
2022/12/28 11:39:25;;;;;;;3.88;3.67;;;;;;;6.99;100.00;154288.13;4994298;28;20605;-75
2022/12/28 11:41:52;;;;;;;4.20;3.90;;;;;;;7.00;100.00;154290.66;5006749;28;20044;-75
2022/12/28 11:44:44;;;;;;;4.63;4.30;;;;;;;6.99;100.00;154286.84;5025215;28;20037;-76
2022/12/28 11:47:15;;;;;;;5.25;3.80;;;;;;;6.97;100.00;154283.00;4986520;28;20131;-75
2022/12/28 11:49:43;;;;;;;4.45;4.05;;;;;;;6.95;100.00;154276.56;5006590;28;20388;-75
2022/12/28 11:52:15;;;;;;;4.43;3.92;;;;;;;6.93;100.00;154272.78;5006422;28;20045;-75
2022/12/28 11:54:51;;;;;;;3.35;3.15;;;;;;;6.91;100.00;154266.34;5027473;28;20033;-73
2022/12/28 11:57:33;;;;;;;4.13;3.22;;;;;;;6.90;100.00;154265.09;4995059;28;20037;-74
2022/12/28 12:00:18;;;;;;;3.05;2.85;;;;;;;6.90;100.00;154263.81;5021254;28;20029;-74
2022/12/28 12:02:46;;;;;;;3.22;2.75;;;;;;;6.94;100.00;154274.03;4995555;28;20044;-75